Time;durP1;ratioP1;P1;durP2;ratioP2;P2;SDS_P1;SDS_P2;PMS_P1;PMS_P2;Temp;Humidity;BMP_temperature;BMP_pressure;BME280_temperature;BME280_humidity;BME280_pressure;Samples;Min_cycle;Max_cycle;Signal;HPM_P1;HPM_P2
2022/03/17 00:02:25;;;;;;;0.10;0.10;;;;;;;;;;5090008;28;20245;-76
2022/03/17 00:04:52;;;;;;;0.10;0.10;;;;;;;;;;5102756;28;20214;-76
2022/03/17 00:07:19;;;;;;;0.10;0.10;;;;;;;;;;5091021;28;20332;-75
2022/03/17 00:09:48;;;;;;;0.10;0.10;;;;;;;;;;5102711;28;20416;-74
2022/03/17 00:12:14;;;;;;;0.23;0.23;;;;;;;;;;5090973;28;20287;-74
2022/03/17 00:14:41;;;;;;;0.20;0.20;;;;;;;;;;5102570;28;20261;-75
2022/03/17 00:17:08;;;;;;;2.20;2.10;;;;;;;;;;5088075;28;20238;-76
2022/03/17 00:19:35;;;;;;;0.10;0.10;;;;;;;;;;5102441;28;20259;-75
2022/03/17 00:22:04;;;;;;;2.97;2.77;;;;;;;;;;5091674;28;20241;-75
2022/03/17 00:24:30;;;;;;;0.10;0.10;;;;;;;;;;5106106;28;20205;-76
2022/03/17 00:26:59;;;;;;;0.10;0.10;;;;;;;;;;5094490;28;20238;-75
2022/03/17 00:29:25;;;;;;;0.97;0.97;;;;;;;;;;5106047;28;20201;-74
2022/03/17 00:31:51;;;;;;;0.10;0.10;;;;;;;;;;5094485;28;20272;-76
2022/03/17 00:34:18;;;;;;;0.10;0.10;;;;;;;;;;5106002;28;20229;-75
2022/03/17 00:36:46;;;;;;;0.10;0.10;;;;;;;;;;5093927;28;20439;-75
2022/03/17 00:39:12;;;;;;;0.10;0.10;;;;;;;;;;5105498;28;20210;-75
2022/03/17 00:41:38;;;;;;;0.10;0.10;;;;;;;;;;5094355;28;20242;-75
2022/03/17 00:44:06;;;;;;;0.10;0.10;;;;;;;;;;5105795;28;20223;-75
2022/03/17 00:46:33;;;;;;;0.57;0.57;;;;;;;;;;5093795;28;20242;-74
2022/03/17 00:48:59;;;;;;;0.43;0.43;;;;;;;;;;5105552;28;20214;-75
2022/03/17 00:51:26;;;;;;;0.10;0.10;;;;;;;;;;5094670;28;20241;-75
2022/03/17 00:53:52;;;;;;;0.73;0.73;;;;;;;;;;5105595;28;20249;-76
2022/03/17 00:56:19;;;;;;;0.10;0.10;;;;;;;;;;5094624;28;20260;-75
2022/03/17 00:58:47;;;;;;;0.37;0.37;;;;;;;;;;5105009;28;20198;-76
2022/03/17 01:01:15;;;;;;;0.10;0.10;;;;;;;;;;5094269;28;20242;-75
2022/03/17 01:03:41;;;;;;;0.10;0.10;;;;;;;;;;5105212;28;20209;-75
2022/03/17 01:06:07;;;;;;;0.10;0.10;;;;;;;;;;5094432;28;20581;-77
2022/03/17 01:08:34;;;;;;;0.10;0.10;;;;;;;;;;5104731;28;20206;-76
2022/03/17 01:11:00;;;;;;;0.10;0.10;;;;;;;;;;5094509;28;20241;-75
2022/03/17 01:13:26;;;;;;;1.30;1.30;;;;;;;;;;5104747;28;20220;-76
2022/03/17 01:15:53;;;;;;;0.87;0.87;;;;;;;;;;5094585;28;20349;-75
2022/03/17 01:18:21;;;;;;;2.53;2.43;;;;;;;;;;5104924;28;20209;-74
2022/03/17 01:20:47;;;;;;;0.33;0.33;;;;;;;;;;5094346;28;20296;-75
2022/03/17 01:23:14;;;;;;;0.10;0.10;;;;;;;;;;5104678;28;20252;-75
2022/03/17 01:25:40;;;;;;;0.10;0.10;;;;;;;;;;5094789;28;20260;-75
2022/03/17 01:28:06;;;;;;;0.10;0.10;;;;;;;;;;5104828;28;20202;-74
2022/03/17 01:30:35;;;;;;;0.10;0.10;;;;;;;;;;5094399;28;20460;-74
2022/03/17 01:33:01;;;;;;;0.27;0.27;;;;;;;;;;5103775;28;20210;-74
2022/03/17 01:35:29;;;;;;;0.10;0.10;;;;;;;;;;5093595;28;20553;-76
2022/03/17 01:37:55;;;;;;;0.10;0.10;;;;;;;;;;5103836;28;20214;-75
2022/03/17 01:40:21;;;;;;;0.10;0.10;;;;;;;;;;5094295;28;20557;-76
2022/03/17 01:42:49;;;;;;;0.10;0.10;;;;;;;;;;5103768;28;20432;-75
2022/03/17 01:45:17;;;;;;;0.33;0.33;;;;;;;;;;5092849;28;20202;-75
2022/03/17 01:47:44;;;;;;;0.20;0.20;;;;;;;;;;5103373;28;20251;-76
2022/03/17 01:50:12;;;;;;;0.20;0.20;;;;;;;;;;5093870;28;20267;-76
2022/03/17 01:52:40;;;;;;;0.33;0.33;;;;;;;;;;5103349;28;20201;-74
2022/03/17 01:55:07;;;;;;;0.40;0.40;;;;;;;;;;5098078;28;20206;-76
2022/03/17 01:57:33;;;;;;;0.47;0.47;;;;;;;;;;5102961;28;20392;-75
2022/03/17 02:00:01;;;;;;;0.30;0.30;;;;;;;;;;5104207;28;20209;-75
2022/03/17 02:02:27;;;;;;;0.20;0.20;;;;;;;;;;5092657;28;20341;-74
2022/03/17 02:04:54;;;;;;;0.20;0.20;;;;;;;;;;5104413;28;20386;-75
2022/03/17 02:07:23;;;;;;;0.20;0.20;;;;;;;;;;5092168;28;20288;-75
2022/03/17 02:09:50;;;;;;;0.20;0.20;;;;;;;;;;5104075;28;20225;-75
2022/03/17 02:15:03;;;;;;;0.20;0.20;;;;;;;;;;5104483;28;20200;-75
2022/03/17 02:17:30;;;;;;;0.10;0.10;;;;;;;;;;5092427;28;20248;-75
2022/03/17 02:19:58;;;;;;;0.10;0.10;;;;;;;;;;5104108;28;20207;-75
2022/03/17 02:22:25;;;;;;;0.50;0.50;;;;;;;;;;5092471;28;20238;-77
2022/03/17 02:27:40;;;;;;;0.10;0.10;;;;;;;;;;5075375;28;20225;-74
2022/03/17 02:30:07;;;;;;;7.53;2.20;;;;;;;;;;5095617;28;20197;-75
2022/03/17 02:32:34;;;;;;;0.20;0.20;;;;;;;;;;5102781;28;20240;-76
2022/03/17 02:35:03;;;;;;;0.20;0.20;;;;;;;;;;5103973;28;20346;-76
2022/03/17 02:37:29;;;;;;;0.20;0.20;;;;;;;;;;5092158;28;20449;-75
2022/03/17 02:39:57;;;;;;;0.10;0.10;;;;;;;;;;5103948;28;20225;-75
2022/03/17 02:42:24;;;;;;;0.10;0.10;;;;;;;;;;5091814;28;20249;-76
2022/03/17 02:44:50;;;;;;;0.30;0.30;;;;;;;;;;5103484;28;20226;-75
2022/03/17 02:47:17;;;;;;;0.77;0.77;;;;;;;;;;5091926;28;20492;-74
2022/03/17 02:49:43;;;;;;;1.17;1.17;;;;;;;;;;5103397;28;20276;-75
2022/03/17 02:52:09;;;;;;;0.17;0.17;;;;;;;;;;5091915;28;20237;-75
2022/03/17 02:54:36;;;;;;;0.17;0.17;;;;;;;;;;5103712;28;20197;-75
2022/03/17 02:57:06;;;;;;;0.33;0.33;;;;;;;;;;5091987;28;20245;-75
2022/03/17 02:59:34;;;;;;;26.10;23.77;;;;;;;;;;5103488;28;20419;-75
2022/03/17 03:02:04;;;;;;;0.20;0.20;;;;;;;;;;5091670;28;20248;-76
2022/03/17 03:04:31;;;;;;;0.33;0.33;;;;;;;;;;5103429;28;20297;-75
2022/03/17 03:06:57;;;;;;;0.10;0.10;;;;;;;;;;5092092;28;20242;-76
2022/03/17 03:09:23;;;;;;;0.17;0.17;;;;;;;;;;5103281;28;20438;-76
2022/03/17 03:11:49;;;;;;;1.93;1.93;;;;;;;;;;5091813;28;20252;-76
2022/03/17 03:14:18;;;;;;;0.43;0.43;;;;;;;;;;5102912;28;20200;-75
2022/03/17 03:16:45;;;;;;;0.43;0.43;;;;;;;;;;5091678;28;20306;-76
2022/03/17 03:19:11;;;;;;;0.67;0.67;;;;;;;;;;5103055;28;20198;-75
2022/03/17 03:21:38;;;;;;;0.20;0.20;;;;;;;;;;5084614;28;20245;-75
2022/03/17 03:24:04;;;;;;;0.10;0.10;;;;;;;;;;5103051;28;20226;-75
2022/03/17 03:26:30;;;;;;;0.10;0.10;;;;;;;;;;5090849;28;20296;-74
2022/03/17 03:28:57;;;;;;;0.20;0.20;;;;;;;;;;5102714;28;20361;-75
2022/03/17 03:31:24;;;;;;;0.20;0.20;;;;;;;;;;5092109;28;20234;-75
2022/03/17 03:33:51;;;;;;;0.20;0.20;;;;;;;;;;5102695;28;20452;-75
2022/03/17 03:39:01;;;;;;;0.17;0.17;;;;;;;;;;5102670;28;20211;-74
2022/03/17 03:41:27;;;;;;;0.20;0.20;;;;;;;;;;5091584;28;20466;-76
2022/03/17 03:43:54;;;;;;;0.10;0.10;;;;;;;;;;5084938;28;20216;-75
2022/03/17 03:46:21;;;;;;;0.20;0.20;;;;;;;;;;5091665;28;20249;-75
2022/03/17 03:48:49;;;;;;;0.10;0.10;;;;;;;;;;5102277;28;20201;-76
2022/03/17 03:51:15;;;;;;;1.50;1.40;;;;;;;;;;5091427;28;20256;-75
2022/03/17 03:56:26;;;;;;;0.30;0.30;;;;;;;;;;5092036;28;20308;-76
2022/03/17 03:58:53;;;;;;;0.10;0.10;;;;;;;;;;5106163;28;20434;-74
2022/03/17 04:01:20;;;;;;;3.43;3.33;;;;;;;;;;5095372;28;20264;-75
2022/03/17 04:03:47;;;;;;;0.20;0.20;;;;;;;;;;5106157;28;20198;-76
2022/03/17 04:06:16;;;;;;;0.10;0.10;;;;;;;;;;5095609;28;20244;-74
2022/03/17 04:08:42;;;;;;;1.10;1.10;;;;;;;;;;5105899;28;20193;-76
2022/03/17 04:11:09;;;;;;;0.77;0.77;;;;;;;;;;5095238;28;20241;-75
2022/03/17 04:13:35;;;;;;;0.10;0.10;;;;;;;;;;5106042;28;20207;-75
2022/03/17 04:16:02;;;;;;;0.47;0.47;;;;;;;;;;5094643;28;20245;-75
2022/03/17 04:18:28;;;;;;;0.20;0.20;;;;;;;;;;5105610;28;20420;-76
2022/03/17 04:20:54;;;;;;;0.27;0.27;;;;;;;;;;5095296;28;20238;-74
2022/03/17 04:23:23;;;;;;;0.20;0.20;;;;;;;;;;5105333;28;20258;-74
2022/03/17 04:25:49;;;;;;;0.20;0.20;;;;;;;;;;5095144;28;20257;-75
2022/03/17 04:28:19;;;;;;;0.20;0.20;;;;;;;;;;5105271;28;20200;-75
2022/03/17 04:30:45;;;;;;;0.20;0.20;;;;;;;;;;5095552;28;20300;-77
2022/03/17 04:33:11;;;;;;;0.10;0.10;;;;;;;;;;5105324;28;20322;-75
2022/03/17 04:35:38;;;;;;;3.20;3.10;;;;;;;;;;5095145;28;20530;-76
2022/03/17 04:38:04;;;;;;;0.40;0.40;;;;;;;;;;5105259;28;20267;-76
2022/03/17 04:40:32;;;;;;;0.30;0.30;;;;;;;;;;5095478;28;20295;-75
2022/03/17 04:42:58;;;;;;;0.40;0.40;;;;;;;;;;5104992;28;20188;-76
2022/03/17 04:45:24;;;;;;;0.20;0.20;;;;;;;;;;5095414;28;20444;-74
2022/03/17 04:47:51;;;;;;;0.33;0.33;;;;;;;;;;5104943;28;20298;-76
2022/03/17 04:50:17;;;;;;;0.10;0.10;;;;;;;;;;5094052;28;20213;-74
2022/03/17 04:55:27;;;;;;;0.10;0.10;;;;;;;;;;5094974;28;20259;-74
2022/03/17 04:57:55;;;;;;;0.10;0.10;;;;;;;;;;5104711;28;20208;-76
2022/03/17 05:00:21;;;;;;;2.60;2.53;;;;;;;;;;5094910;28;20207;-75
2022/03/17 05:02:48;;;;;;;0.10;0.10;;;;;;;;;;5104362;28;20242;-74
2022/03/17 05:05:14;;;;;;;0.73;0.73;;;;;;;;;;5094735;28;20202;-75
2022/03/17 05:07:40;;;;;;;0.20;0.20;;;;;;;;;;5104393;28;20229;-75
2022/03/17 05:10:07;;;;;;;10.03;9.10;;;;;;;;;;5095946;28;20199;-75
2022/03/17 05:12:34;;;;;;;0.40;0.40;;;;;;;;;;5104122;28;20222;-75
2022/03/17 05:15:02;;;;;;;0.57;0.57;;;;;;;;;;5105332;28;20209;-75
2022/03/17 05:17:30;;;;;;;0.60;0.60;;;;;;;;;;5091796;28;20245;-75
2022/03/17 05:19:58;;;;;;;0.83;0.83;;;;;;;;;;5105125;28;20205;-76
2022/03/17 05:22:25;;;;;;;1.00;1.00;;;;;;;;;;5092033;28;20236;-76
2022/03/17 05:24:52;;;;;;;0.20;0.20;;;;;;;;;;5105587;28;20209;-76
2022/03/17 05:27:18;;;;;;;1.23;1.23;;;;;;;;;;5093646;28;20239;-75
2022/03/17 05:29:47;;;;;;;5.93;3.73;;;;;;;;;;5105031;28;20217;-75
2022/03/17 05:32:14;;;;;;;0.20;0.20;;;;;;;;;;5093522;28;20236;-75
2022/03/17 05:34:41;;;;;;;0.50;0.50;;;;;;;;;;5104652;28;20221;-75
2022/03/17 05:37:07;;;;;;;0.40;0.40;;;;;;;;;;5093585;28;20248;-77
2022/03/17 05:39:33;;;;;;;0.20;0.20;;;;;;;;;;5104747;28;20251;-76
2022/03/17 05:42:00;;;;;;;0.40;0.40;;;;;;;;;;5093151;28;20240;-76
2022/03/17 05:44:26;;;;;;;2.23;2.13;;;;;;;;;;5104551;28;20197;-74
2022/03/17 05:46:52;;;;;;;0.50;0.50;;;;;;;;;;5093069;28;20241;-76
2022/03/17 05:49:20;;;;;;;0.10;0.10;;;;;;;;;;5104366;28;20517;-74
2022/03/17 05:51:46;;;;;;;0.17;0.17;;;;;;;;;;5092756;28;20280;-75
2022/03/17 05:54:15;;;;;;;0.10;0.10;;;;;;;;;;5104378;28;20266;-76
2022/03/17 05:56:42;;;;;;;0.20;0.20;;;;;;;;;;5093163;28;20503;-74
2022/03/17 05:59:08;;;;;;;0.60;0.60;;;;;;;;;;5104054;28;20202;-75
2022/03/17 06:01:34;;;;;;;0.23;0.23;;;;;;;;;;5093004;28;20233;-75
2022/03/17 06:04:00;;;;;;;0.60;0.60;;;;;;;;;;5104004;28;20202;-75
2022/03/17 06:06:28;;;;;;;0.20;0.20;;;;;;;;;;5092823;28;20244;-76
2022/03/17 06:08:54;;;;;;;0.30;0.30;;;;;;;;;;5104126;28;20223;-76
2022/03/17 06:11:21;;;;;;;0.20;0.20;;;;;;;;;;5092952;28;20241;-75
2022/03/17 06:13:48;;;;;;;0.20;0.20;;;;;;;;;;5103687;28;20200;-75
2022/03/17 06:16:14;;;;;;;0.10;0.10;;;;;;;;;;5092745;28;20323;-76
2022/03/17 06:18:41;;;;;;;1.53;1.50;;;;;;;;;;5103722;28;20239;-76
2022/03/17 06:21:08;;;;;;;2.83;2.73;;;;;;;;;;5092493;28;20496;-76
2022/03/17 06:23:35;;;;;;;0.20;0.20;;;;;;;;;;5103688;28;20447;-75
2022/03/17 06:26:02;;;;;;;4.80;1.90;;;;;;;;;;5092871;28;20448;-74
2022/03/17 06:28:28;;;;;;;1.43;1.30;;;;;;;;;;5103324;28;20225;-74
2022/03/17 06:30:56;;;;;;;0.20;0.20;;;;;;;;;;5092774;28;20328;-76
2022/03/17 06:33:22;;;;;;;0.10;0.10;;;;;;;;;;5103119;28;20252;-75
2022/03/17 06:35:49;;;;;;;0.60;0.60;;;;;;;;;;5093058;28;20248;-75
2022/03/17 06:38:15;;;;;;;0.20;0.20;;;;;;;;;;5102770;28;20212;-75
2022/03/17 06:40:43;;;;;;;3.20;0.93;;;;;;;;;;5092766;28;20274;-75
2022/03/17 06:43:09;;;;;;;0.97;0.97;;;;;;;;;;5102731;28;20236;-75
2022/03/17 06:45:35;;;;;;;1.23;1.23;;;;;;;;;;5093087;28;20251;-75
2022/03/17 06:48:01;;;;;;;0.30;0.30;;;;;;;;;;5103026;28;20247;-75
2022/03/17 06:50:28;;;;;;;4.13;1.23;;;;;;;;;;5092681;28;20257;-76
2022/03/17 06:52:55;;;;;;;0.20;0.20;;;;;;;;;;5102813;28;20201;-75
2022/03/17 06:55:21;;;;;;;0.50;0.50;;;;;;;;;;5092659;28;20236;-75
2022/03/17 06:57:49;;;;;;;0.20;0.20;;;;;;;;;;5102668;28;20204;-75
2022/03/17 07:00:16;;;;;;;1.03;1.03;;;;;;;;;;5092510;28;20206;-75
2022/03/17 07:02:43;;;;;;;0.27;0.27;;;;;;;;;;5102371;28;20243;-76
2022/03/17 07:05:09;;;;;;;1.13;1.13;;;;;;;;;;5092355;28;20209;-74
2022/03/17 07:07:38;;;;;;;0.20;0.20;;;;;;;;;;5102220;28;20205;-75
2022/03/17 07:10:08;;;;;;;0.10;0.10;;;;;;;;;;5098247;28;20507;-78
2022/03/17 07:12:35;;;;;;;0.47;0.47;;;;;;;;;;5020882;28;20233;-74
2022/03/17 07:15:03;;;;;;;0.97;0.97;;;;;;;;;;5020938;28;20208;-75
2022/03/17 07:17:34;;;;;;;2.10;2.00;;;;;;;;;;5010952;28;20245;-75
2022/03/17 07:20:04;;;;;;;0.10;0.10;;;;;;;;;;5021065;28;20206;-75
2022/03/17 07:22:30;;;;;;;0.83;0.83;;;;;;;;;;4994399;28;20314;-77
2022/03/17 07:24:57;;;;;;;0.83;0.83;;;;;;;;;;5021070;28;20216;-74
2022/03/17 07:27:23;;;;;;;0.20;0.20;;;;;;;;;;5010863;28;20334;-74
2022/03/17 07:29:50;;;;;;;0.10;0.10;;;;;;;;;;5020837;28;20207;-75
2022/03/17 07:32:18;;;;;;;0.60;0.60;;;;;;;;;;5011889;28;20251;-74
2022/03/17 07:34:45;;;;;;;3.97;1.23;;;;;;;;;;5024368;28;20238;-74
2022/03/17 07:37:11;;;;;;;0.47;0.47;;;;;;;;;;5046346;28;20254;-74
2022/03/17 07:39:37;;;;;;;10.37;5.60;;;;;;;;;;5107066;28;20362;-73
2022/03/17 07:42:05;;;;;;;0.43;0.43;;;;;;;;;;5095440;28;20308;-75
2022/03/17 07:44:31;;;;;;;0.47;0.47;;;;;;;;;;5107072;28;20296;-74
2022/03/17 07:46:57;;;;;;;0.20;0.20;;;;;;;;;;5095593;28;20242;-75
2022/03/17 07:49:25;;;;;;;0.73;0.73;;;;;;;;;;5106872;28;20209;-76
2022/03/17 07:51:53;;;;;;;0.10;0.10;;;;;;;;;;5093950;28;20548;-75
2022/03/17 07:54:19;;;;;;;0.77;0.77;;;;;;;;;;5105633;28;20212;-74
2022/03/17 07:56:46;;;;;;;0.20;0.20;;;;;;;;;;5093534;28;20237;-75
2022/03/17 07:59:12;;;;;;;0.20;0.20;;;;;;;;;;5105324;28;20267;-76
2022/03/17 08:01:38;;;;;;;9.43;2.83;;;;;;;;;;5093966;28;20464;-75
2022/03/17 08:04:07;;;;;;;1.90;1.90;;;;;;;;;;5105062;28;20216;-75
2022/03/17 08:06:35;;;;;;;0.20;0.20;;;;;;;;;;5091907;28;20478;-75
2022/03/17 08:09:02;;;;;;;0.10;0.10;;;;;;;;;;5105098;28;20253;-69
2022/03/17 08:11:28;;;;;;;0.37;0.37;;;;;;;;;;5094190;28;20458;-70
2022/03/17 08:13:54;;;;;;;0.30;0.30;;;;;;;;;;5105039;28;20201;-70
2022/03/17 08:16:21;;;;;;;1.30;1.30;;;;;;;;;;5094148;28;20253;-69
2022/03/17 08:18:48;;;;;;;0.67;0.67;;;;;;;;;;5104733;28;20206;-70
2022/03/17 08:21:14;;;;;;;1.40;1.40;;;;;;;;;;5094119;28;20338;-70
2022/03/17 08:23:42;;;;;;;0.67;0.67;;;;;;;;;;5104838;28;20296;-70
2022/03/17 08:26:08;;;;;;;2.37;1.10;;;;;;;;;;5093254;28;20238;-71
2022/03/17 08:28:34;;;;;;;0.10;0.10;;;;;;;;;;5104542;28;20330;-71
2022/03/17 08:31:04;;;;;;;4.53;2.20;;;;;;;;;;5094166;28;20588;-74
2022/03/17 08:33:30;;;;;;;0.73;0.73;;;;;;;;;;5104229;28;20432;-74
2022/03/17 08:35:57;;;;;;;0.93;0.93;;;;;;;;;;5093874;28;20265;-75
2022/03/17 08:38:23;;;;;;;0.50;0.50;;;;;;;;;;5104197;28;20435;-75
2022/03/17 08:40:53;;;;;;;5.37;4.33;;;;;;;;;;5093880;28;20242;-75
2022/03/17 08:43:20;;;;;;;0.20;0.20;;;;;;;;;;5103927;28;20225;-75
2022/03/17 08:51:14;;;;;;;0.20;0.20;;;;;;;;;;5038807;28;1192272;-75
2022/03/17 08:53:41;;;;;;;1.80;1.70;;;;;;;;;;5101785;28;20210;-74
2022/03/17 08:56:09;;;;;;;0.50;0.50;;;;;;;;;;5094866;28;20245;-73
2022/03/17 08:58:35;;;;;;;0.30;0.30;;;;;;;;;;5104795;28;20284;-73
2022/03/17 09:01:02;;;;;;;0.43;0.43;;;;;;;;;;5094441;28;20245;-75
2022/03/17 09:03:30;;;;;;;0.10;0.10;;;;;;;;;;5104775;28;20237;-73
2022/03/17 09:05:58;;;;;;;1.40;1.40;;;;;;;;;;5094602;28;20241;-73
2022/03/17 09:08:24;;;;;;;0.10;0.10;;;;;;;;;;5105049;28;20421;-74
2022/03/17 09:10:51;;;;;;;0.20;0.20;;;;;;;;;;5094450;28;20452;-75
2022/03/17 09:13:18;;;;;;;0.33;0.33;;;;;;;;;;5104334;28;20520;-74
2022/03/17 09:15:46;;;;;;;0.10;0.10;;;;;;;;;;5094066;28;20288;-73
2022/03/17 09:18:12;;;;;;;3.50;3.37;;;;;;;;;;5104512;28;20194;-74
2022/03/17 09:20:40;;;;;;;3.63;3.20;;;;;;;;;;5094377;28;20241;-74
2022/03/17 09:23:06;;;;;;;0.10;0.10;;;;;;;;;;5104302;28;20519;-73
2022/03/17 09:25:34;;;;;;;3.90;3.70;;;;;;;;;;5094332;28;20358;-75
2022/03/17 09:28:00;;;;;;;2.30;2.20;;;;;;;;;;5104090;28;20263;-74
2022/03/17 09:30:28;;;;;;;0.97;0.97;;;;;;;;;;5094241;28;20549;-74
2022/03/17 09:32:55;;;;;;;0.97;0.97;;;;;;;;;;5104180;28;20265;-75
2022/03/17 09:35:22;;;;;;;0.53;0.53;;;;;;;;;;5091110;28;20278;-74
2022/03/17 09:37:49;;;;;;;1.73;1.70;;;;;;;;;;5104008;28;20233;-74
2022/03/17 09:40:15;;;;;;;1.63;1.63;;;;;;;;;;5094141;28;20218;-73
2022/03/17 09:42:42;;;;;;;0.50;0.50;;;;;;;;;;5103784;28;20298;-74
2022/03/17 09:45:09;;;;;;;0.20;0.20;;;;;;;;;;5093427;28;20232;-75
2022/03/17 09:47:39;;;;;;;0.60;0.60;;;;;;;;;;5103991;28;20206;-74
2022/03/17 09:50:07;;;;;;;1.57;1.50;;;;;;;;;;5104467;28;20225;-74
2022/03/17 09:52:35;;;;;;;0.10;0.10;;;;;;;;;;5093284;28;20241;-74
2022/03/17 09:55:02;;;;;;;1.90;1.90;;;;;;;;;;5103548;28;20272;-74
2022/03/17 09:57:28;;;;;;;0.10;0.10;;;;;;;;;;5092298;28;20305;-73
2022/03/17 09:59:56;;;;;;;0.37;0.37;;;;;;;;;;5104399;28;20265;-75
2022/03/17 10:02:23;;;;;;;0.10;0.10;;;;;;;;;;5092621;28;20313;-74
2022/03/17 10:04:53;;;;;;;0.83;0.83;;;;;;;;;;5104211;28;20210;-73
2022/03/17 10:07:21;;;;;;;1.60;1.60;;;;;;;;;;5093011;28;20242;-73
2022/03/17 10:09:48;;;;;;;0.10;0.10;;;;;;;;;;5104184;28;20262;-75
2022/03/17 10:12:16;;;;;;;0.10;0.10;;;;;;;;;;5092774;28;20248;-75
2022/03/17 10:14:43;;;;;;;3.07;2.63;;;;;;;;;;5103944;28;20201;-74
2022/03/17 10:17:29;;;;;;;2.20;2.10;;;;;;;;;;5090983;28;20305;-75
2022/03/17 10:20:10;;;;;;;4.53;4.00;;;;;;;;;;5104073;28;20187;-75
2022/03/17 10:22:40;;;;;;;0.10;0.10;;;;;;;;;;5075316;28;20222;-74
2022/03/17 10:25:07;;;;;;;0.37;0.37;;;;;;;;;;5096846;28;20269;-74
2022/03/17 10:27:38;;;;;;;6.70;2.43;;;;;;;;;;5102855;28;20298;-74
2022/03/17 10:30:06;;;;;;;0.10;0.10;;;;;;;;;;5103637;28;20198;-73
2022/03/17 10:32:32;;;;;;;0.10;0.10;;;;;;;;;;5038455;28;20223;-74
2022/03/17 10:35:00;;;;;;;0.10;0.10;;;;;;;;;;5083398;28;20223;-75
2022/03/17 10:37:30;;;;;;;0.83;0.83;;;;;;;;;;5091814;28;20439;-73
2022/03/17 10:39:57;;;;;;;2.13;2.07;;;;;;;;;;5103792;28;20262;-74
2022/03/17 10:42:25;;;;;;;3.00;2.63;;;;;;;;;;5091914;28;20317;-74
2022/03/17 10:44:53;;;;;;;0.37;0.37;;;;;;;;;;5103621;28;20202;-75
2022/03/17 10:47:23;;;;;;;0.40;0.40;;;;;;;;;;5091403;28;20553;-75
2022/03/17 10:50:04;;;;;;;7.93;4.03;;;;;;;;;;5103706;28;20207;-75
2022/03/17 10:52:58;;;;;;;14.00;6.27;;;;;;;;;;5092073;28;20301;-75
2022/03/17 10:55:25;;;;;;;0.30;0.30;;;;;;;;;;5068055;28;20625;-73
2022/03/17 10:57:52;;;;;;;0.30;0.30;;;;;;;;;;5102300;28;20521;-74
2022/03/17 11:00:20;;;;;;;0.10;0.10;;;;;;;;;;5093131;28;20205;-74
2022/03/17 11:02:48;;;;;;;0.20;0.20;;;;;;;;;;5102618;28;20278;-74
2022/03/17 11:05:16;;;;;;;0.40;0.40;;;;;;;;;;5092918;28;20552;-74
2022/03/17 11:07:44;;;;;;;0.73;0.73;;;;;;;;;;5102100;28;20202;-76
2022/03/17 11:10:15;;;;;;;0.97;0.97;;;;;;;;;;5092153;28;20213;-75
2022/03/17 11:12:42;;;;;;;0.10;0.10;;;;;;;;;;5101996;28;20206;-74
2022/03/17 11:15:09;;;;;;;0.33;0.33;;;;;;;;;;5091295;28;20205;-75
2022/03/17 11:17:37;;;;;;;2.90;2.70;;;;;;;;;;5020693;28;20227;-74
2022/03/17 11:20:06;;;;;;;2.57;2.47;;;;;;;;;;5021086;28;20237;-75
2022/03/17 11:22:34;;;;;;;0.20;0.20;;;;;;;;;;4993848;28;20212;-76
2022/03/17 11:25:19;;;;;;;2.00;1.90;;;;;;;;;;5004592;28;20205;-74
2022/03/17 11:27:46;;;;;;;4.70;3.50;;;;;;;;;;5020771;28;20233;-74
2022/03/17 11:30:14;;;;;;;0.30;0.30;;;;;;;;;;5010033;28;20250;-75
2022/03/17 11:32:49;;;;;;;0.97;0.90;;;;;;;;;;5005820;28;20448;-77
2022/03/17 11:35:17;;;;;;;0.20;0.20;;;;;;;;;;5009703;28;20454;-75
2022/03/17 11:37:47;;;;;;;0.40;0.40;;;;;;;;;;5006470;28;20213;-74
2022/03/17 11:40:15;;;;;;;0.37;0.37;;;;;;;;;;5010435;28;20209;-75
2022/03/17 11:42:42;;;;;;;0.10;0.10;;;;;;;;;;5064478;28;20246;-74
2022/03/17 11:45:10;;;;;;;1.97;1.90;;;;;;;;;;5091118;28;20212;-74
2022/03/17 11:47:37;;;;;;;0.20;0.20;;;;;;;;;;5101875;28;20255;-76
2022/03/17 11:53:24;;;;;;;0.10;0.10;;;;;;;;;;5088877;28;20523;-75
2022/03/17 11:55:53;;;;;;;3.77;3.60;;;;;;;;;;5091814;28;20305;-74
2022/03/17 11:58:24;;;;;;;0.47;0.47;;;;;;;;;;5102221;28;20205;-75
2022/03/17 12:00:53;;;;;;;0.37;0.30;;;;;;;;;;5091525;28;20443;-74
2022/03/17 12:03:29;;;;;;;1.13;1.13;;;;;;;;;;5102037;28;20222;-75
2022/03/17 12:06:05;;;;;;;4.57;4.13;;;;;;;;;;5091755;28;20241;-74
2022/03/17 12:08:38;;;;;;;3.57;3.27;;;;;;;;;;5101893;28;20200;-72
2022/03/17 12:11:06;;;;;;;1.07;0.40;;;;;;;;;;5091745;28;20242;-74
2022/03/17 12:13:34;;;;;;;0.10;0.10;;;;;;;;;;5102387;28;20207;-74
2022/03/17 12:16:01;;;;;;;0.10;0.10;;;;;;;;;;5091567;28;20248;-74
2022/03/17 12:18:28;;;;;;;0.10;0.10;;;;;;;;;;5103663;28;20507;-74
2022/03/17 12:20:57;;;;;;;4.13;2.53;;;;;;;;;;5095563;28;20266;-74
2022/03/17 12:23:42;;;;;;;0.10;0.10;;;;;;;;;;5105690;28;20416;-75
2022/03/17 12:26:10;;;;;;;0.10;0.10;;;;;;;;;;5095477;28;20243;-76
2022/03/17 12:28:42;;;;;;;0.30;0.30;;;;;;;;;;5106096;28;20273;-75
2022/03/17 12:31:09;;;;;;;0.10;0.10;;;;;;;;;;5094943;28;20310;-74
2022/03/17 12:33:37;;;;;;;0.30;0.30;;;;;;;;;;5105654;28;20200;-74
2022/03/17 12:36:04;;;;;;;0.10;0.10;;;;;;;;;;5095291;28;20244;-75
2022/03/17 12:38:32;;;;;;;2.27;2.17;;;;;;;;;;5105674;28;20221;-75
2022/03/17 12:41:00;;;;;;;0.10;0.10;;;;;;;;;;5095161;28;20259;-75
2022/03/17 12:43:28;;;;;;;2.87;2.77;;;;;;;;;;5105085;28;20216;-74
2022/03/17 12:45:56;;;;;;;1.13;1.13;;;;;;;;;;5094936;28;20458;-74
2022/03/17 12:48:25;;;;;;;0.93;0.93;;;;;;;;;;5105364;28;20204;-76
2022/03/17 12:50:51;;;;;;;0.13;0.13;;;;;;;;;;5077132;28;20235;-75
2022/03/17 12:53:18;;;;;;;2.80;2.67;;;;;;;;;;5105147;28;20209;-74
2022/03/17 12:55:45;;;;;;;0.10;0.10;;;;;;;;;;5092088;28;20304;-75
2022/03/17 12:58:16;;;;;;;0.10;0.10;;;;;;;;;;5104836;28;20325;-74
2022/03/17 13:00:43;;;;;;;0.20;0.20;;;;;;;;;;5093431;28;20275;-75
2022/03/17 13:03:15;;;;;;;7.00;1.33;;;;;;;;;;5105013;28;20508;-75
2022/03/17 13:08:36;;;;;;;1.40;1.37;;;;;;;;;;5105035;28;20225;-75
2022/03/17 13:16:33;;;;;;;5.10;4.83;;;;;;;;;;5093969;28;20455;-75
2022/03/17 13:18:59;;;;;;;0.20;0.20;;;;;;;;;;5104754;28;20543;-75
2022/03/17 13:21:25;;;;;;;0.80;0.80;;;;;;;;;;5093751;28;20519;-75
2022/03/17 13:23:53;;;;;;;0.63;0.63;;;;;;;;;;5104858;28;20232;-75
2022/03/17 13:26:20;;;;;;;0.30;0.30;;;;;;;;;;5094130;28;20242;-73
2022/03/17 13:29:00;;;;;;;0.47;0.47;;;;;;;;;;5104375;28;20207;-74
2022/03/17 13:31:34;;;;;;;2.00;1.90;;;;;;;;;;5093254;28;20255;-74
2022/03/17 13:34:00;;;;;;;0.27;0.27;;;;;;;;;;5104478;28;20261;-75
2022/03/17 13:36:41;;;;;;;0.10;0.10;;;;;;;;;;5093761;28;20303;-74
2022/03/17 13:39:10;;;;;;;0.37;0.37;;;;;;;;;;5103824;28;20241;-73
2022/03/17 13:41:36;;;;;;;0.30;0.30;;;;;;;;;;5093482;28;20244;-73
2022/03/17 13:44:04;;;;;;;0.10;0.10;;;;;;;;;;5104268;28;20233;-72
2022/03/17 13:46:40;;;;;;;1.70;0.93;;;;;;;;;;5093423;28;20243;-74
2022/03/17 13:49:15;;;;;;;0.10;0.10;;;;;;;;;;5104343;28;20203;-74
2022/03/17 13:51:41;;;;;;;0.40;0.40;;;;;;;;;;5093182;28;20279;-74
2022/03/17 13:54:08;;;;;;;0.10;0.10;;;;;;;;;;5104107;28;20201;-75
2022/03/17 13:56:36;;;;;;;0.20;0.20;;;;;;;;;;5093060;28;20250;-75
2022/03/17 13:59:10;;;;;;;0.10;0.10;;;;;;;;;;5104286;28;20215;-75
2022/03/17 14:01:36;;;;;;;0.10;0.10;;;;;;;;;;5093147;28;20330;-74
2022/03/17 14:04:04;;;;;;;0.10;0.10;;;;;;;;;;5103962;28;20225;-74
2022/03/17 14:06:32;;;;;;;0.10;0.10;;;;;;;;;;5093275;28;20255;-75
2022/03/17 14:09:01;;;;;;;1.80;1.70;;;;;;;;;;5104227;28;20234;-78
2022/03/17 14:11:29;;;;;;;1.70;1.70;;;;;;;;;;5093008;28;20252;-74
2022/03/17 14:13:56;;;;;;;0.77;0.73;;;;;;;;;;5103934;28;20204;-73
2022/03/17 14:16:24;;;;;;;0.30;0.30;;;;;;;;;;5092821;28;20589;-75
2022/03/17 14:18:51;;;;;;;0.60;0.60;;;;;;;;;;5103901;28;20294;-75
2022/03/17 14:21:17;;;;;;;0.30;0.30;;;;;;;;;;5093032;28;20244;-73
2022/03/17 14:26:32;;;;;;;0.77;0.77;;;;;;;;;;5092883;28;20343;-73
2022/03/17 14:28:59;;;;;;;0.50;0.50;;;;;;;;;;5103625;28;20226;-75
2022/03/17 14:31:26;;;;;;;0.10;0.10;;;;;;;;;;5092911;28;20244;-74
2022/03/17 14:33:52;;;;;;;0.27;0.27;;;;;;;;;;5103380;28;20254;-75
2022/03/17 14:36:19;;;;;;;1.33;1.33;;;;;;;;;;5091772;28;20558;-73
2022/03/17 14:38:48;;;;;;;0.10;0.10;;;;;;;;;;5103261;28;20213;-74
2022/03/17 14:41:16;;;;;;;0.10;0.10;;;;;;;;;;5092202;28;20387;-74
2022/03/17 14:43:42;;;;;;;0.10;0.10;;;;;;;;;;5103217;28;20404;-74
2022/03/17 14:46:09;;;;;;;2.37;2.27;;;;;;;;;;5092583;28;20248;-74
2022/03/17 14:48:36;;;;;;;0.30;0.30;;;;;;;;;;5103002;28;20359;-74
2022/03/17 14:51:03;;;;;;;1.23;1.23;;;;;;;;;;5092449;28;20306;-73
2022/03/17 14:53:30;;;;;;;1.80;1.80;;;;;;;;;;5102781;28;20235;-74
2022/03/17 14:55:58;;;;;;;0.10;0.10;;;;;;;;;;5092421;28;20445;-74
2022/03/17 14:58:27;;;;;;;6.07;4.30;;;;;;;;;;5102896;28;20251;-74
2022/03/17 15:00:54;;;;;;;0.40;0.40;;;;;;;;;;5092393;28;20252;-74
2022/03/17 15:03:20;;;;;;;0.10;0.10;;;;;;;;;;5102463;28;20421;-74
2022/03/17 15:05:47;;;;;;;0.10;0.10;;;;;;;;;;5092427;28;20247;-73
2022/03/17 15:08:13;;;;;;;0.60;0.60;;;;;;;;;;5102534;28;20238;-75
2022/03/17 15:10:39;;;;;;;0.50;0.50;;;;;;;;;;5092022;28;20248;-74
2022/03/17 15:13:07;;;;;;;0.10;0.10;;;;;;;;;;5102173;28;20206;-74
2022/03/17 15:15:33;;;;;;;0.10;0.10;;;;;;;;;;5092363;28;20316;-73
2022/03/17 15:18:02;;;;;;;0.10;0.10;;;;;;;;;;5102347;28;20408;-72
2022/03/17 15:20:28;;;;;;;0.10;0.10;;;;;;;;;;5092336;28;20263;-73